Impacts METAR Board
IDs:

KIAH - Houston/Bush Intl, TX, US

Updated at: 1200 UTC 27 Feb 2021
Potential Impact None Slight Moderate High
Time 27/00Z 27/01Z 27/02Z 27/03Z 27/04Z 27/05Z 27/06Z 27/07Z 27/08Z 27/09Z 27/10Z 27/11Z 27/12Z
Temp75 72 71 70 70 69 68 68 68 68 69 70 70
Dewpt64 65 65 65 66 66 65 66 66 66 67 68 67
Altim29.87 29.90 29.90 29.92 29.94 29.95 29.95 29.93 29.94 29.92 29.91 29.92 29.92
VIS10 10 10 10 10 7 7 7 0.75 0.25 1 4 7
CIG250 250 15 12 11 10 10 10 6 2 3 16 23
CoverBKNBKNBKNOVCOVCOVCOVCOVCOVCOVCOVCOVCOVC
FltCatVFRVFRMVFRMVFRMVFRMVFRMVFRMVFRLIFRLIFRLIFRMVFRMVFR
WX----------------BR-RA BRBRBR--
WDir160160160150170150110110130130160160160
WSpd12 9 9 7 8 5 4 6 5 6 6 5 5
WGst-- -- -- -- -- -- -- -- -- -- -- -- --
Raw hourly METARs
KIAH 262353Z 16012KT 10SM FEW027 SCT055 BKN250 24/18 A2987 RMK AO2 SLP116 T02390178 10267 20239 56002
KIAH 270053Z 16009KT 10SM FEW020 FEW050 BKN250 22/18 A2990 RMK AO2 SLP123 T02220183
KIAH 270153Z 16009KT 10SM BKN015 BKN250 22/18 A2990 RMK AO2 SLP126 T02170183
KIAH 270253Z 15007KT 10SM BKN012 OVC020 21/18 A2992 RMK AO2 SLP131 T02110183 51016
KIAH 270353Z 17008KT 10SM BKN011 OVC020 21/19 A2994 RMK AO2 SLP139 T02110189
KIAH 270453Z 15005KT 7SM BKN010 OVC020 21/19 A2995 RMK AO2 SLP142 T02060189
KIAH 270553Z 11004KT 7SM OVC010 20/18 A2995 RMK AO2 SLP143 T02000183 10239 20200 402670167 51011
KIAH 270653Z 11006KT 7SM OVC010 20/19 A2993 RMK AO2 SLP136 T02000189
KIAH 270753Z COR 13005KT 3/4SM BR SCT003 BKN006 OVC010 20/19 A2994 RMK AO2 SFC VIS 5 RAB42E52 SLP137 P0000 T02000189
KIAH 270853Z 13006KT 1/4SM -RA BR OVC002 20/19 A2992 RMK AO2 SFC VIS 2 RAB07 SLP132 P0000 60000 T02000189 56010
KIAH 270953Z 16006KT 1SM BR BKN003 OVC025 21/19 A2991 RMK AO2 SFC VIS 2 RAE0854 SLP126 P0000 T02060194
KIAH 271053Z 16005KT 4SM BR SCT006 OVC016 21/20 A2992 RMK AO2 SLP130 T02110200
KIAH 271153Z 16005KT 7SM SCT009 OVC023 21/19 A2992 RMK AO2 SLP132 60000 70001 T02110194 10211 20194 55000



Page loaded:  12:53 UTC  |   04:53 AM Pacific  |   05:53 AM Mountain  |   06:53 AM Central  |   07:53 AM Eastern

 

ADVISORIES

FORECASTS

FORECASTS

OBSERVATIONS

USER TOOLS

ABOUT US